sensor_id;sensor_type;location;lat;lon;timestamp;pressure;altitude;pressure_sealevel;temperature;humidity
52535;BME280;38443;53.164;5.802;2023-02-17T00:02:23;101825.50;;;7.03;100.00
52535;BME280;38443;53.164;5.802;2023-02-17T00:04:49;101818.44;;;7.02;100.00
52535;BME280;38443;53.164;5.802;2023-02-17T00:07:16;101818.44;;;7.02;100.00
52535;BME280;38443;53.164;5.802;2023-02-17T00:09:41;101811.31;;;7.01;100.00
52535;BME280;38443;53.164;5.802;2023-02-17T00:12:06;101805.13;;;7.00;100.00
52535;BME280;38443;53.164;5.802;2023-02-17T00:14:32;101814.84;;;7.01;100.00
52535;BME280;38443;53.164;5.802;2023-02-17T00:16:57;101802.44;;;6.98;100.00
52535;BME280;38443;53.164;5.802;2023-02-17T00:19:22;101802.44;;;6.98;100.00
52535;BME280;38443;53.164;5.802;2023-02-17T00:24:16;101774.94;;;6.96;100.00
52535;BME280;38443;53.164;5.802;2023-02-17T00:26:41;101772.28;;;6.96;100.00
52535;BME280;38443;53.164;5.802;2023-02-17T00:29:07;101781.13;;;6.95;100.00
52535;BME280;38443;53.164;5.802;2023-02-17T00:31:32;101788.25;;;6.95;100.00
52535;BME280;38443;53.164;5.802;2023-02-17T00:33:57;101776.69;;;6.93;100.00
52535;BME280;38443;53.164;5.802;2023-02-17T00:36:23;101778.47;;;6.91;100.00
52535;BME280;38443;53.164;5.802;2023-02-17T00:38:49;101782.91;;;6.90;100.00
52535;BME280;38443;53.164;5.802;2023-02-17T00:41:15;101786.44;;;6.89;100.00
52535;BME280;38443;53.164;5.802;2023-02-17T00:43:40;101772.28;;;6.90;100.00
52535;BME280;38443;53.164;5.802;2023-02-17T00:46:05;101764.28;;;6.90;100.00
52535;BME280;38443;53.164;5.802;2023-02-17T00:48:31;101766.94;;;6.89;100.00
52535;BME280;38443;53.164;5.802;2023-02-17T00:50:56;101771.41;;;6.90;100.00
52535;BME280;38443;53.164;5.802;2023-02-17T00:53:22;101782.03;;;6.90;100.00
52535;BME280;38443;53.164;5.802;2023-02-17T00:55:47;101782.03;;;6.91;100.00
52535;BME280;38443;53.164;5.802;2023-02-17T00:58:14;101778.50;;;6.92;100.00
52535;BME280;38443;53.164;5.802;2023-02-17T01:00:39;101770.50;;;6.94;100.00
52535;BME280;38443;53.164;5.802;2023-02-17T01:03:04;101781.16;;;6.92;100.00
52535;BME280;38443;53.164;5.802;2023-02-17T01:05:30;101779.38;;;6.93;100.00
52535;BME280;38443;53.164;5.802;2023-02-17T01:07:55;101772.28;;;6.92;100.00
52535;BME280;38443;53.164;5.802;2023-02-17T01:10:20;101772.28;;;6.90;100.00
52535;BME280;38443;53.164;5.802;2023-02-17T01:12:45;101756.28;;;6.87;100.00
52535;BME280;38443;53.164;5.802;2023-02-17T01:15:11;101745.66;;;6.84;100.00
52535;BME280;38443;53.164;5.802;2023-02-17T01:17:37;101752.75;;;6.79;100.00
52535;BME280;38443;53.164;5.802;2023-02-17T01:20:02;101753.63;;;6.76;100.00
52535;BME280;38443;53.164;5.802;2023-02-17T01:22:28;101760.72;;;6.74;100.00
52535;BME280;38443;53.164;5.802;2023-02-17T01:24:53;101760.72;;;6.77;100.00
52535;BME280;38443;53.164;5.802;2023-02-17T01:27:19;101761.63;;;6.78;100.00
52535;BME280;38443;53.164;5.802;2023-02-17T01:29:45;101769.59;;;6.81;100.00
52535;BME280;38443;53.164;5.802;2023-02-17T01:32:10;101773.13;;;6.83;100.00
52535;BME280;38443;53.164;5.802;2023-02-17T01:34:36;101775.81;;;6.86;100.00
52535;BME280;38443;53.164;5.802;2023-02-17T01:37:02;101774.03;;;6.87;100.00
52535;BME280;38443;53.164;5.802;2023-02-17T01:39:27;101759.84;;;6.89;100.00
52535;BME280;38443;53.164;5.802;2023-02-17T01:41:53;101758.09;;;6.90;100.00
52535;BME280;38443;53.164;5.802;2023-02-17T01:44:20;101752.78;;;6.90;100.00
52535;BME280;38443;53.164;5.802;2023-02-17T01:46:49;101754.53;;;6.92;100.00
52535;BME280;38443;53.164;5.802;2023-02-17T01:49:36;101758.09;;;6.94;100.00
52535;BME280;38443;53.164;5.802;2023-02-17T01:54:41;101753.66;;;6.96;100.00
52535;BME280;38443;53.164;5.802;2023-02-17T01:57:07;101748.34;;;6.98;100.00
52535;BME280;38443;53.164;5.802;2023-02-17T01:59:33;101746.56;;;6.98;100.00
52535;BME280;38443;53.164;5.802;2023-02-17T02:01:59;101742.09;;;7.01;100.00
52535;BME280;38443;53.164;5.802;2023-02-17T02:04:29;101743.91;;;7.00;100.00
52535;BME280;38443;53.164;5.802;2023-02-17T02:06:56;101735.00;;;6.99;100.00
52535;BME280;38443;53.164;5.802;2023-02-17T02:09:23;101729.69;;;6.98;100.00
52535;BME280;38443;53.164;5.802;2023-02-17T02:11:50;101729.66;;;6.99;100.00
52535;BME280;38443;53.164;5.802;2023-02-17T02:14:18;101718.16;;;6.97;100.00
52535;BME280;38443;53.164;5.802;2023-02-17T02:20:02;101711.94;;;6.98;100.00
52535;BME280;38443;53.164;5.802;2023-02-17T02:29:07;101693.31;;;6.97;100.00
52535;BME280;38443;53.164;5.802;2023-02-17T02:31:50;101677.34;;;6.97;100.00
52535;BME280;38443;53.164;5.802;2023-02-17T02:34:23;101686.22;;;6.96;100.00
52535;BME280;38443;53.164;5.802;2023-02-17T02:37:03;101690.66;;;6.98;100.00
52535;BME280;38443;53.164;5.802;2023-02-17T02:39:34;101686.22;;;7.01;100.00
52535;BME280;38443;53.164;5.802;2023-02-17T02:42:05;101669.38;;;7.00;100.00
52535;BME280;38443;53.164;5.802;2023-02-17T02:44:32;101672.91;;;6.99;100.00
52535;BME280;38443;53.164;5.802;2023-02-17T02:46:58;101673.81;;;6.98;100.00
52535;BME280;38443;53.164;5.802;2023-02-17T02:49:25;101669.38;;;6.98;100.00
52535;BME280;38443;53.164;5.802;2023-02-17T02:54:40;101646.28;;;6.99;100.00
52535;BME280;38443;53.164;5.802;2023-02-17T02:57:33;101654.28;;;7.01;100.00
52535;BME280;38443;53.164;5.802;2023-02-17T03:00:24;101636.53;;;7.01;100.00
52535;BME280;38443;53.164;5.802;2023-02-17T03:03:17;101637.44;;;7.02;100.00
52535;BME280;38443;53.164;5.802;2023-02-17T03:06:06;101624.13;;;7.02;100.00
52535;BME280;38443;53.164;5.802;2023-02-17T03:08:41;101616.09;;;7.03;100.00
52535;BME280;38443;53.164;5.802;2023-02-17T03:11:08;101615.22;;;7.03;100.00
52535;BME280;38443;53.164;5.802;2023-02-17T03:13:34;101603.69;;;7.01;100.00
52535;BME280;38443;53.164;5.802;2023-02-17T03:16:04;101607.25;;;7.03;100.00
52535;BME280;38443;53.164;5.802;2023-02-17T03:18:34;101599.25;;;7.01;100.00
52535;BME280;38443;53.164;5.802;2023-02-17T03:21:09;101597.50;;;7.02;100.00
52535;BME280;38443;53.164;5.802;2023-02-17T03:23:37;101596.59;;;7.01;100.00
52535;BME280;38443;53.164;5.802;2023-02-17T03:26:02;101600.16;;;6.98;100.00
52535;BME280;38443;53.164;5.802;2023-02-17T03:28:28;101599.28;;;6.98;100.00
52535;BME280;38443;53.164;5.802;2023-02-17T03:30:53;101605.47;;;6.98;100.00
52535;BME280;38443;53.164;5.802;2023-02-17T03:33:18;101602.81;;;6.97;100.00
52535;BME280;38443;53.164;5.802;2023-02-17T03:35:44;101605.47;;;6.95;100.00
52535;BME280;38443;53.164;5.802;2023-02-17T03:38:09;101603.72;;;6.96;100.00
52535;BME280;38443;53.164;5.802;2023-02-17T03:40:34;101605.47;;;6.98;100.00
52535;BME280;38443;53.164;5.802;2023-02-17T03:43:00;101602.81;;;6.97;100.00
52535;BME280;38443;53.164;5.802;2023-02-17T03:45:25;101606.38;;;6.99;100.00
52535;BME280;38443;53.164;5.802;2023-02-17T03:47:50;101606.38;;;6.96;100.00
52535;BME280;38443;53.164;5.802;2023-02-17T03:50:16;101604.59;;;6.98;100.00
52535;BME280;38443;53.164;5.802;2023-02-17T03:52:41;101601.06;;;6.96;100.00
52535;BME280;38443;53.164;5.802;2023-02-17T03:55:06;101581.53;;;6.97;100.00
52535;BME280;38443;53.164;5.802;2023-02-17T03:57:32;101579.78;;;6.96;100.00
52535;BME280;38443;53.164;5.802;2023-02-17T03:59:59;101579.78;;;6.94;100.00
52535;BME280;38443;53.164;5.802;2023-02-17T04:02:24;101579.75;;;6.93;100.00
52535;BME280;38443;53.164;5.802;2023-02-17T04:04:49;101576.22;;;6.91;100.00
52535;BME280;38443;53.164;5.802;2023-02-17T04:07:14;101573.56;;;6.89;100.00
52535;BME280;38443;53.164;5.802;2023-02-17T04:09:40;101569.13;;;6.87;100.00
52535;BME280;38443;53.164;5.802;2023-02-17T04:12:05;101569.13;;;6.85;100.00
52535;BME280;38443;53.164;5.802;2023-02-17T04:14:30;101578.03;;;6.86;100.00
52535;BME280;38443;53.164;5.802;2023-02-17T04:16:56;101569.13;;;6.85;100.00
52535;BME280;38443;53.164;5.802;2023-02-17T04:19:22;101554.94;;;6.85;100.00
52535;BME280;38443;53.164;5.802;2023-02-17T04:21:48;101562.06;;;6.84;100.00
52535;BME280;38443;53.164;5.802;2023-02-17T04:24:13;101543.44;;;6.84;100.00
52535;BME280;38443;53.164;5.802;2023-02-17T04:26:38;101538.97;;;6.83;100.00
52535;BME280;38443;53.164;5.802;2023-02-17T04:29:04;101522.13;;;6.83;100.00
52535;BME280;38443;53.164;5.802;2023-02-17T04:31:29;101534.56;;;6.82;100.00
52535;BME280;38443;53.164;5.802;2023-02-17T04:33:55;101529.25;;;6.82;100.00
52535;BME280;38443;53.164;5.802;2023-02-17T04:36:20;101547.88;;;6.82;100.00
52535;BME280;38443;53.164;5.802;2023-02-17T04:38:45;101549.63;;;6.83;100.00
52535;BME280;38443;53.164;5.802;2023-02-17T04:41:11;101548.75;;;6.83;100.00
52535;BME280;38443;53.164;5.802;2023-02-17T04:43:36;101553.16;;;6.85;100.00
52535;BME280;38443;53.164;5.802;2023-02-17T04:46:01;101575.38;;;6.86;100.00
52535;BME280;38443;53.164;5.802;2023-02-17T04:48:27;101583.31;;;6.87;100.00
52535;BME280;38443;53.164;5.802;2023-02-17T04:50:52;101599.28;;;6.87;100.00
52535;BME280;38443;53.164;5.802;2023-02-17T04:53:18;101593.09;;;6.88;100.00
52535;BME280;38443;53.164;5.802;2023-02-17T04:55:50;101593.06;;;6.91;100.00
52535;BME280;38443;53.164;5.802;2023-02-17T04:58:16;101586.88;;;6.92;100.00
52535;BME280;38443;53.164;5.802;2023-02-17T05:00:42;101592.19;;;6.92;100.00
52535;BME280;38443;53.164;5.802;2023-02-17T05:03:07;101583.31;;;6.93;100.00
52535;BME280;38443;53.164;5.802;2023-02-17T05:05:32;101584.19;;;6.95;100.00
52535;BME280;38443;53.164;5.802;2023-02-17T05:07:58;101585.97;;;6.96;100.00
52535;BME280;38443;53.164;5.802;2023-02-17T05:10:24;101553.16;;;6.96;100.00
52535;BME280;38443;53.164;5.802;2023-02-17T05:12:49;101527.41;;;6.96;100.00
52535;BME280;38443;53.164;5.802;2023-02-17T05:15:15;101521.22;;;6.96;100.00
52535;BME280;38443;53.164;5.802;2023-02-17T05:17:40;101509.66;;;6.97;100.00
52535;BME280;38443;53.164;5.802;2023-02-17T05:20:05;101522.09;;;6.96;100.00
52535;BME280;38443;53.164;5.802;2023-02-17T05:22:31;101517.66;;;6.95;100.00
52535;BME280;38443;53.164;5.802;2023-02-17T05:24:56;101514.13;;;6.95;100.00
52535;BME280;38443;53.164;5.802;2023-02-17T05:27:22;101528.31;;;6.97;100.00
52535;BME280;38443;53.164;5.802;2023-02-17T05:29:48;101517.66;;;6.95;100.00
52535;BME280;38443;53.164;5.802;2023-02-17T05:32:13;101520.31;;;6.98;100.00
52535;BME280;38443;53.164;5.802;2023-02-17T05:34:38;101521.19;;;6.97;100.00
52535;BME280;38443;53.164;5.802;2023-02-17T05:37:04;101520.31;;;6.98;100.00
52535;BME280;38443;53.164;5.802;2023-02-17T05:39:29;101527.41;;;7.01;100.00
52535;BME280;38443;53.164;5.802;2023-02-17T05:41:55;101522.06;;;7.03;100.00
52535;BME280;38443;53.164;5.802;2023-02-17T05:44:20;101521.19;;;7.04;100.00
52535;BME280;38443;53.164;5.802;2023-02-17T05:46:45;101525.63;;;7.03;100.00
52535;BME280;38443;53.164;5.802;2023-02-17T05:49:11;101525.63;;;7.05;100.00
52535;BME280;38443;53.164;5.802;2023-02-17T05:51:36;101517.63;;;7.05;100.00
52535;BME280;38443;53.164;5.802;2023-02-17T05:54:02;101500.75;;;7.07;100.00
52535;BME280;38443;53.164;5.802;2023-02-17T05:56:27;101499.00;;;7.08;100.00
52535;BME280;38443;53.164;5.802;2023-02-17T05:58:53;101484.78;;;7.09;100.00
52535;BME280;38443;53.164;5.802;2023-02-17T06:01:18;101490.97;;;7.09;100.00
52535;BME280;38443;53.164;5.802;2023-02-17T06:03:43;101490.09;;;7.12;100.00
52535;BME280;38443;53.164;5.802;2023-02-17T06:06:09;101499.84;;;7.13;100.00
52535;BME280;38443;53.164;5.802;2023-02-17T06:08:35;101493.63;;;7.15;100.00
52535;BME280;38443;53.164;5.802;2023-02-17T06:11:00;101498.94;;;7.17;100.00
52535;BME280;38443;53.164;5.802;2023-02-17T06:13:25;101483.84;;;7.17;100.00
52535;BME280;38443;53.164;5.802;2023-02-17T06:15:51;101498.94;;;7.18;100.00
52535;BME280;38443;53.164;5.802;2023-02-17T06:18:16;101492.72;;;7.19;100.00
52535;BME280;38443;53.164;5.802;2023-02-17T06:20:42;101486.50;;;7.21;100.00
52535;BME280;38443;53.164;5.802;2023-02-17T06:23:07;101498.03;;;7.19;100.00
52535;BME280;38443;53.164;5.802;2023-02-17T06:25:35;101501.56;;;7.23;100.00
52535;BME280;38443;53.164;5.802;2023-02-17T06:28:01;101494.50;;;7.22;100.00
52535;BME280;38443;53.164;5.802;2023-02-17T06:30:26;101483.81;;;7.27;100.00
52535;BME280;38443;53.164;5.802;2023-02-17T06:32:51;101478.47;;;7.30;100.00
52535;BME280;38443;53.164;5.802;2023-02-17T06:35:17;101478.44;;;7.31;100.00
52535;BME280;38443;53.164;5.802;2023-02-17T06:37:42;101486.44;;;7.31;100.00
52535;BME280;38443;53.164;5.802;2023-02-17T06:40:08;101490.88;;;7.34;100.00
52535;BME280;38443;53.164;5.802;2023-02-17T06:42:33;101471.34;;;7.33;100.00
52535;BME280;38443;53.164;5.802;2023-02-17T06:44:59;101468.66;;;7.36;100.00
52535;BME280;38443;53.164;5.802;2023-02-17T06:47:25;101466.00;;;7.38;100.00
52535;BME280;38443;53.164;5.802;2023-02-17T06:49:50;101467.75;;;7.39;100.00
52535;BME280;38443;53.164;5.802;2023-02-17T06:52:15;101472.16;;;7.42;100.00
52535;BME280;38443;53.164;5.802;2023-02-17T06:54:41;101465.97;;;7.43;100.00
52535;BME280;38443;53.164;5.802;2023-02-17T06:57:06;101467.72;;;7.44;100.00
52535;BME280;38443;53.164;5.802;2023-02-17T06:59:32;101473.94;;;7.46;100.00
52535;BME280;38443;53.164;5.802;2023-02-17T07:01:57;101473.91;;;7.49;100.00
52535;BME280;38443;53.164;5.802;2023-02-17T07:04:23;101457.06;;;7.50;100.00
52535;BME280;38443;53.164;5.802;2023-02-17T07:06:48;101464.13;;;7.52;100.00
52535;BME280;38443;53.164;5.802;2023-02-17T07:09:13;101473.88;;;7.55;100.00
52535;BME280;38443;53.164;5.802;2023-02-17T07:11:39;101475.63;;;7.57;100.00
52535;BME280;38443;53.164;5.802;2023-02-17T07:14:06;101467.66;;;7.56;100.00
52535;BME280;38443;53.164;5.802;2023-02-17T07:16:31;101481.84;;;7.58;100.00
52535;BME280;38443;53.164;5.802;2023-02-17T07:18:56;101466.75;;;7.60;100.00
52535;BME280;38443;53.164;5.802;2023-02-17T07:21:21;101463.16;;;7.61;100.00
52535;BME280;38443;53.164;5.802;2023-02-17T07:23:47;101461.38;;;7.63;100.00
52535;BME280;38443;53.164;5.802;2023-02-17T07:26:12;101460.50;;;7.64;100.00
52535;BME280;38443;53.164;5.802;2023-02-17T07:28:38;101473.81;;;7.64;100.00
52535;BME280;38443;53.164;5.802;2023-02-17T07:31:05;101472.03;;;7.65;100.00
52535;BME280;38443;53.164;5.802;2023-02-17T07:33:32;101461.38;;;7.66;100.00
52535;BME280;38443;53.164;5.802;2023-02-17T07:35:57;101447.13;;;7.70;100.00
52535;BME280;38443;53.164;5.802;2023-02-17T07:38:22;101457.75;;;7.73;100.00
52535;BME280;38443;53.164;5.802;2023-02-17T07:40:48;101451.53;;;7.76;100.00
52535;BME280;38443;53.164;5.802;2023-02-17T07:43:13;101456.84;;;7.76;100.00
52535;BME280;38443;53.164;5.802;2023-02-17T07:45:39;101454.16;;;7.77;100.00
52535;BME280;38443;53.164;5.802;2023-02-17T07:48:04;101447.03;;;7.79;100.00
52535;BME280;38443;53.164;5.802;2023-02-17T07:50:30;101453.28;;;7.78;100.00
52535;BME280;38443;53.164;5.802;2023-02-17T07:52:55;101456.81;;;7.82;100.00
52535;BME280;38443;53.164;5.802;2023-02-17T07:55:20;101454.09;;;7.84;100.00
52535;BME280;38443;53.164;5.802;2023-02-17T07:57:46;101465.63;;;7.86;100.00
52535;BME280;38443;53.164;5.802;2023-02-17T08:00:11;101458.56;;;7.86;100.00
52535;BME280;38443;53.164;5.802;2023-02-17T08:02:36;101434.53;;;7.89;100.00
52535;BME280;38443;53.164;5.802;2023-02-17T08:05:02;101455.84;;;7.91;100.00
52535;BME280;38443;53.164;5.802;2023-02-17T08:07:27;101445.19;;;7.91;100.00
52535;BME280;38443;53.164;5.802;2023-02-17T08:09:52;101429.16;;;7.94;100.00
52535;BME280;38443;53.164;5.802;2023-02-17T08:12:36;101432.72;;;7.96;100.00
52535;BME280;38443;53.164;5.802;2023-02-17T08:15:34;101420.22;;;7.99;100.00
52535;BME280;38443;53.164;5.802;2023-02-17T08:17:59;101423.78;;;8.00;100.00
52535;BME280;38443;53.164;5.802;2023-02-17T08:20:25;101427.28;;;8.04;100.00
52535;BME280;38443;53.164;5.802;2023-02-17T08:22:51;101437.91;;;8.08;100.00
52535;BME280;38443;53.164;5.802;2023-02-17T08:25:16;101419.25;;;8.08;100.00
52535;BME280;38443;53.164;5.802;2023-02-17T08:27:43;101422.75;;;8.13;100.00
52535;BME280;38443;53.164;5.802;2023-02-17T08:30:10;101436.06;;;8.16;100.00
52535;BME280;38443;53.164;5.802;2023-02-17T08:32:35;101426.25;;;8.18;100.00
52535;BME280;38443;53.164;5.802;2023-02-17T08:35:01;101412.06;;;8.18;100.00
52535;BME280;38443;53.164;5.802;2023-02-17T08:37:29;101415.59;;;8.20;100.00
52535;BME280;38443;53.164;5.802;2023-02-17T08:39:56;101418.22;;;8.22;100.00
52535;BME280;38443;53.164;5.802;2023-02-17T08:42:24;101418.22;;;8.22;100.00
52535;BME280;38443;53.164;5.802;2023-02-17T08:44:50;101410.19;;;8.23;100.00
52535;BME280;38443;53.164;5.802;2023-02-17T08:47:15;101396.00;;;8.23;100.00
52535;BME280;38443;53.164;5.802;2023-02-17T08:49:41;101396.88;;;8.25;100.00
52535;BME280;38443;53.164;5.802;2023-02-17T08:52:06;101396.00;;;8.21;100.00
52535;BME280;38443;53.164;5.802;2023-02-17T08:54:32;101417.28;;;8.26;100.00
52535;BME280;38443;53.164;5.802;2023-02-17T08:56:57;101408.44;;;8.22;100.00
52535;BME280;38443;53.164;5.802;2023-02-17T08:59:23;101419.06;;;8.27;100.00
52535;BME280;38443;53.164;5.802;2023-02-17T09:01:48;101422.59;;;8.30;100.00
52535;BME280;38443;53.164;5.802;2023-02-17T09:04:15;101422.53;;;8.33;100.00
52535;BME280;38443;53.164;5.802;2023-02-17T09:06:48;101413.66;;;8.33;100.00
52535;BME280;38443;53.164;5.802;2023-02-17T09:09:17;101409.19;;;8.38;100.00
52535;BME280;38443;53.164;5.802;2023-02-17T09:11:43;101394.03;;;8.40;100.00
52535;BME280;38443;53.164;5.802;2023-02-17T09:14:09;101395.81;;;8.44;100.00
52535;BME280;38443;53.164;5.802;2023-02-17T09:16:34;101421.56;;;8.44;100.00
52535;BME280;38443;53.164;5.802;2023-02-17T09:19:00;101426.88;;;8.48;100.00
52535;BME280;38443;53.164;5.802;2023-02-17T09:21:25;101423.28;;;8.51;100.00
52535;BME280;38443;53.164;5.802;2023-02-17T09:23:51;101409.94;;;8.49;100.00
52535;BME280;38443;53.164;5.802;2023-02-17T09:26:18;101393.00;;;8.53;100.00
52535;BME280;38443;53.164;5.802;2023-02-17T09:28:44;101410.75;;;8.57;100.00
52535;BME280;38443;53.164;5.802;2023-02-17T09:31:14;101394.72;;;8.57;100.00
52535;BME280;38443;53.164;5.802;2023-02-17T09:33:40;101391.13;;;8.62;100.00
52535;BME280;38443;53.164;5.802;2023-02-17T09:36:07;101380.44;;;8.62;100.00
52535;BME280;38443;53.164;5.802;2023-02-17T09:38:34;101387.50;;;8.66;100.00
52535;BME280;38443;53.164;5.802;2023-02-17T09:41:08;101397.28;;;8.67;100.00
52535;BME280;38443;53.164;5.802;2023-02-17T09:43:38;101418.63;;;8.68;100.00
52535;BME280;38443;53.164;5.802;2023-02-17T09:46:09;101431.06;;;8.68;100.00
52535;BME280;38443;53.164;5.802;2023-02-17T09:48:36;101429.25;;;8.70;100.00
52535;BME280;38443;53.164;5.802;2023-02-17T09:51:26;101433.72;;;8.71;100.00
52535;BME280;38443;53.164;5.802;2023-02-17T09:53:53;101450.59;;;8.74;100.00
52535;BME280;38443;53.164;5.802;2023-02-17T09:56:23;101444.31;;;8.77;100.00
52535;BME280;38443;53.164;5.802;2023-02-17T09:58:52;101462.06;;;8.79;100.00
52535;BME280;38443;53.164;5.802;2023-02-17T10:01:20;101467.41;;;8.81;100.00
52535;BME280;38443;53.164;5.802;2023-02-17T10:03:53;101480.72;;;8.84;100.00
52535;BME280;38443;53.164;5.802;2023-02-17T10:09:18;101479.75;;;8.90;100.00
52535;BME280;38443;53.164;5.802;2023-02-17T10:11:53;101489.53;;;8.91;100.00
52535;BME280;38443;53.164;5.802;2023-02-17T10:14:23;101484.19;;;8.89;100.00
52535;BME280;38443;53.164;5.802;2023-02-17T10:16:52;101494.00;;;8.90;100.00
52535;BME280;38443;53.164;5.802;2023-02-17T10:21:50;101495.75;;;8.90;100.00
52535;BME280;38443;53.164;5.802;2023-02-17T10:24:19;101473.53;;;8.88;100.00
52535;BME280;38443;53.164;5.802;2023-02-17T10:34:42;101465.66;;;8.80;100.00
52535;BME280;38443;53.164;5.802;2023-02-17T10:42:00;101476.22;;;8.88;100.00
52535;BME280;38443;53.164;5.802;2023-02-17T10:44:25;101480.66;;;8.87;100.00
52535;BME280;38443;53.164;5.802;2023-02-17T10:46:51;101484.19;;;8.89;100.00
52535;BME280;38443;53.164;5.802;2023-02-17T10:49:25;101508.25;;;8.88;100.00
52535;BME280;38443;53.164;5.802;2023-02-17T10:51:51;101505.56;;;8.88;100.00
52535;BME280;38443;53.164;5.802;2023-02-17T10:54:34;101504.72;;;8.86;100.00
52535;BME280;38443;53.164;5.802;2023-02-17T10:57:01;101497.59;;;8.86;100.00
52535;BME280;38443;53.164;5.802;2023-02-17T10:59:30;101510.03;;;8.87;100.00
52535;BME280;38443;53.164;5.802;2023-02-17T11:04:41;101493.06;;;8.93;100.00
52535;BME280;38443;53.164;5.802;2023-02-17T11:07:09;101492.13;;;8.97;100.00
52535;BME280;38443;53.164;5.802;2023-02-17T11:09:38;101493.00;;;8.97;100.00
52535;BME280;38443;53.164;5.802;2023-02-17T11:12:12;101501.88;;;9.01;100.00
52535;BME280;38443;53.164;5.802;2023-02-17T11:14:42;101497.38;;;9.06;100.00
52535;BME280;38443;53.164;5.802;2023-02-17T11:19:53;101492.75;;;9.17;100.00
52535;BME280;38443;53.164;5.802;2023-02-17T11:22:29;101480.22;;;9.24;100.00
52535;BME280;38443;53.164;5.802;2023-02-17T11:25:03;101494.44;;;9.25;100.00
52535;BME280;38443;53.164;5.802;2023-02-17T11:27:29;101500.66;;;9.25;100.00
52535;BME280;38443;53.164;5.802;2023-02-17T11:30:04;101514.88;;;9.29;100.00
52535;BME280;38443;53.164;5.802;2023-02-17T11:32:30;101505.91;;;9.33;100.00
52535;BME280;38443;53.164;5.802;2023-02-17T11:34:58;101489.81;;;9.36;100.00
52535;BME280;38443;53.164;5.802;2023-02-17T11:37:30;101481.78;;;9.39;100.00
52535;BME280;38443;53.164;5.802;2023-02-17T11:39:57;101496.88;;;9.42;100.00
52535;BME280;38443;53.164;5.802;2023-02-17T11:44:48;101494.19;;;9.45;100.00
52535;BME280;38443;53.164;5.802;2023-02-17T11:47:17;101500.31;;;9.51;100.00
52535;BME280;38443;53.164;5.802;2023-02-17T12:00:53;101523.50;;;9.49;100.00
52535;BME280;38443;53.164;5.802;2023-02-17T12:11:44;101539.41;;;9.58;100.00
52535;BME280;38443;53.164;5.802;2023-02-17T12:17:18;101535.69;;;9.69;100.00
52535;BME280;38443;53.164;5.802;2023-02-17T12:23:01;101521.38;;;9.73;100.00
52535;BME280;38443;53.164;5.802;2023-02-17T12:25:32;101522.25;;;9.73;100.00
52535;BME280;38443;53.164;5.802;2023-02-17T12:33:11;101525.78;;;9.75;100.00
52535;BME280;38443;53.164;5.802;2023-02-17T12:35:48;101516.13;;;9.68;100.00
52535;BME280;38443;53.164;5.802;2023-02-17T12:38:40;101494.75;;;9.65;100.00
52535;BME280;38443;53.164;5.802;2023-02-17T12:43:46;101553.56;;;9.65;100.00
52535;BME280;38443;53.164;5.802;2023-02-17T12:46:28;101549.09;;;9.67;100.00
52535;BME280;38443;53.164;5.802;2023-02-17T12:49:08;101554.44;;;9.67;100.00
52535;BME280;38443;53.164;5.802;2023-02-17T12:51:43;101562.44;;;9.67;100.00
52535;BME280;38443;53.164;5.802;2023-02-17T12:54:18;101563.28;;;9.71;100.00
52535;BME280;38443;53.164;5.802;2023-02-17T13:02:01;101570.56;;;9.59;100.00
52535;BME280;38443;53.164;5.802;2023-02-17T13:04:28;101558.06;;;9.60;100.00
52535;BME280;38443;53.164;5.802;2023-02-17T13:09:36;101562.69;;;9.49;100.00
52535;BME280;38443;53.164;5.802;2023-02-17T13:12:08;101560.91;;;9.48;100.00
52535;BME280;38443;53.164;5.802;2023-02-17T13:14:39;101574.31;;;9.46;100.00
52535;BME280;38443;53.164;5.802;2023-02-17T13:17:05;101567.19;;;9.47;100.00
52535;BME280;38443;53.164;5.802;2023-02-17T13:19:32;101593.03;;;9.45;100.00
52535;BME280;38443;53.164;5.802;2023-02-17T13:21:58;101606.41;;;9.46;100.00
52535;BME280;38443;53.164;5.802;2023-02-17T13:24:34;101586.75;;;9.49;100.00
52535;BME280;38443;53.164;5.802;2023-02-17T13:29:44;101598.31;;;9.51;100.00
52535;BME280;38443;53.164;5.802;2023-02-17T13:32:10;101607.25;;;9.48;100.00
52535;BME280;38443;53.164;5.802;2023-02-17T13:34:39;101599.25;;;9.45;100.00
52535;BME280;38443;53.164;5.802;2023-02-17T13:40:00;101617.19;;;9.34;100.00
52535;BME280;38443;53.164;5.802;2023-02-17T13:42:40;101622.63;;;9.28;100.00
52535;BME280;38443;53.164;5.802;2023-02-17T13:47:55;101628.06;;;9.20;100.00
52535;BME280;38443;53.164;5.802;2023-02-17T13:52:57;101637.91;;;9.16;100.00
52535;BME280;38443;53.164;5.802;2023-02-17T13:55:22;101648.47;;;9.26;100.00
52535;BME280;38443;53.164;5.802;2023-02-17T13:58:09;101643.91;;;9.34;100.00
52535;BME280;38443;53.164;5.802;2023-02-17T14:00:35;101629.59;;;9.39;100.00
52535;BME280;38443;53.164;5.802;2023-02-17T14:03:28;101653.63;;;9.43;100.00
52535;BME280;38443;53.164;5.802;2023-02-17T14:05:59;101665.19;;;9.43;100.00
52535;BME280;38443;53.164;5.802;2023-02-17T14:08:33;101681.28;;;9.38;100.00
52535;BME280;38443;53.164;5.802;2023-02-17T14:11:11;101637.69;;;9.35;100.00
52535;BME280;38443;53.164;5.802;2023-02-17T14:13:39;101698.28;;;9.30;100.00
52535;BME280;38443;53.164;5.802;2023-02-17T14:16:05;101691.19;;;9.27;100.00
52535;BME280;38443;53.164;5.802;2023-02-17T14:18:35;101674.31;;;9.25;100.00
52535;BME280;38443;53.164;5.802;2023-02-17T14:21:06;101692.06;;;9.29;100.00
52535;BME280;38443;53.164;5.802;2023-02-17T14:23:49;101699.16;;;9.32;100.00
52535;BME280;38443;53.164;5.802;2023-02-17T14:26:36;101685.78;;;9.36;100.00
52535;BME280;38443;53.164;5.802;2023-02-17T14:29:05;101707.00;;;9.49;100.00
52535;BME280;38443;53.164;5.802;2023-02-17T14:31:40;101704.22;;;9.59;100.00